createdAt,value
2022-07-31T00:00:27.401Z,15.50
2022-07-31T00:02:54.160Z,15.50
2022-07-31T00:05:20.887Z,15.50
2022-07-31T00:07:47.435Z,15.50
2022-07-31T00:10:14.436Z,15.50
2022-07-31T00:12:41.072Z,15.40
2022-07-31T00:15:11.791Z,15.60
2022-07-31T00:17:40.903Z,15.30
2022-07-31T00:20:12.586Z,15.30
2022-07-31T00:22:41.376Z,15.30
2022-07-31T00:25:09.985Z,15.40
2022-07-31T00:27:36.519Z,15.20
2022-07-31T00:30:04.859Z,15.30
2022-07-31T00:32:33.426Z,15.30
2022-07-31T00:35:00.113Z,15.30
2022-07-31T00:37:27.149Z,15.30
2022-07-31T00:39:53.731Z,15.30
2022-07-31T00:42:26.225Z,15.30
2022-07-31T00:44:52.975Z,15.40
2022-07-31T00:47:23.913Z,15.30
2022-07-31T00:49:52.007Z,15.30
2022-07-31T00:52:18.895Z,15.30
2022-07-31T00:54:45.433Z,15.30
2022-07-31T00:57:12.019Z,15.30
2022-07-31T00:59:38.681Z,15.30
2022-07-31T01:02:05.217Z,15.70
2022-07-31T01:04:31.711Z,15.70
2022-07-31T01:07:00.467Z,15.60
2022-07-31T01:09:27.370Z,15.50
2022-07-31T01:12:05.449Z,15.40
2022-07-31T01:14:39.014Z,15.30
2022-07-31T01:17:08.935Z,15.30
2022-07-31T01:19:45.982Z,15.40
2022-07-31T01:31:25.998Z,15.30
2022-07-31T01:34:08.097Z,15.40
2022-07-31T01:36:41.406Z,15.10
2022-07-31T01:39:07.928Z,15.00
2022-07-31T01:41:42.429Z,15.00
2022-07-31T01:44:14.056Z,14.90
2022-07-31T01:46:44.063Z,14.90
2022-07-31T01:49:12.966Z,14.80
2022-07-31T01:51:42.408Z,14.80
2022-07-31T01:54:12.164Z,14.90
2022-07-31T01:56:40.344Z,14.90
2022-07-31T01:59:12.364Z,14.90
2022-07-31T02:01:48.984Z,14.70
2022-07-31T02:04:19.836Z,14.80
2022-07-31T02:06:49.401Z,15.00
2022-07-31T02:09:19.333Z,14.90
2022-07-31T02:11:54.518Z,15.00
2022-07-31T02:14:23.432Z,14.90
2022-07-31T02:16:50.238Z,15.00
2022-07-31T02:19:19.483Z,15.00
2022-07-31T02:21:46.100Z,15.10
2022-07-31T02:24:12.968Z,15.10
2022-07-31T02:26:40.599Z,15.10
2022-07-31T02:29:19.988Z,15.10
2022-07-31T02:32:11.759Z,15.10
2022-07-31T02:34:39.261Z,15.20
2022-07-31T02:37:07.228Z,15.40
2022-07-31T02:39:36.327Z,15.30
2022-07-31T02:42:03.906Z,15.30
2022-07-31T02:44:33.910Z,15.40
2022-07-31T02:47:01.904Z,15.40
2022-07-31T02:49:30.164Z,15.50
2022-07-31T02:51:57.398Z,15.50
2022-07-31T02:54:28.007Z,15.40
2022-07-31T02:56:55.734Z,15.20
2022-07-31T02:59:22.429Z,15.00
2022-07-31T03:01:49.024Z,14.90
2022-07-31T03:04:16.945Z,15.00
2022-07-31T03:06:43.456Z,15.00
2022-07-31T03:09:09.996Z,15.10
2022-07-31T03:11:36.893Z,15.10
2022-07-31T03:14:06.626Z,15.10
2022-07-31T03:16:35.982Z,15.10
2022-07-31T03:19:04.858Z,15.20
2022-07-31T03:21:32.214Z,15.30
2022-07-31T03:23:59.882Z,15.40
2022-07-31T03:26:27.358Z,15.40
2022-07-31T03:28:54.037Z,15.50
2022-07-31T03:31:20.720Z,15.50
2022-07-31T03:33:47.389Z,15.60
2022-07-31T03:36:13.891Z,15.60
2022-07-31T03:38:43.160Z,15.60
2022-07-31T03:41:11.326Z,15.60
2022-07-31T03:43:44.163Z,15.60
2022-07-31T03:46:17.967Z,15.60
2022-07-31T03:48:45.539Z,15.50
2022-07-31T03:51:13.042Z,15.50
2022-07-31T03:53:40.830Z,15.60
2022-07-31T03:56:08.903Z,15.60
2022-07-31T03:58:36.748Z,15.70
2022-07-31T04:01:08.925Z,15.70
2022-07-31T04:03:38.945Z,15.60
2022-07-31T04:06:05.622Z,15.80
2022-07-31T04:08:33.098Z,15.80
2022-07-31T04:11:02.391Z,15.80
2022-07-31T04:13:28.894Z,15.80
2022-07-31T04:15:58.398Z,15.80
2022-07-31T04:18:24.932Z,15.80
2022-07-31T04:20:51.432Z,16.00
2022-07-31T04:23:17.969Z,16.10
2022-07-31T04:25:46.102Z,16.40
2022-07-31T04:28:12.689Z,16.60
2022-07-31T04:30:39.544Z,16.50
2022-07-31T04:33:06.107Z,16.50
2022-07-31T04:35:32.733Z,16.60
2022-07-31T04:37:59.345Z,16.60
2022-07-31T04:40:26.768Z,16.70
2022-07-31T04:42:55.441Z,16.90
2022-07-31T04:45:21.980Z,17.20
2022-07-31T04:47:48.607Z,17.20
2022-07-31T04:50:17.780Z,17.20
2022-07-31T04:52:44.294Z,17.30
2022-07-31T04:55:10.854Z,17.50
2022-07-31T04:57:37.523Z,17.40
2022-07-31T05:00:06.202Z,17.30
2022-07-31T05:02:32.715Z,17.50
2022-07-31T05:04:59.277Z,17.90
2022-07-31T05:07:28.833Z,18.30
2022-07-31T05:09:57.883Z,18.40
2022-07-31T05:12:24.417Z,18.50
2022-07-31T05:14:50.951Z,18.70
2022-07-31T05:17:17.556Z,19.10
2022-07-31T05:19:44.100Z,19.10
2022-07-31T05:22:11.105Z,19.30
2022-07-31T05:24:38.086Z,19.20
2022-07-31T05:27:05.218Z,19.30
2022-07-31T05:29:33.554Z,19.00
2022-07-31T05:32:01.566Z,19.00
2022-07-31T05:34:30.084Z,19.30
2022-07-31T05:37:01.641Z,19.30
2022-07-31T05:39:29.462Z,19.50
2022-07-31T05:41:56.198Z,19.80
2022-07-31T05:44:22.755Z,19.90
2022-07-31T05:49:15.619Z,20.00
2022-07-31T05:51:46.138Z,20.20
2022-07-31T05:54:12.674Z,20.30
2022-07-31T05:56:39.193Z,20.40
2022-07-31T05:59:06.237Z,20.60
2022-07-31T06:01:32.936Z,20.50
2022-07-31T06:03:59.612Z,20.50
2022-07-31T06:06:26.195Z,20.40
2022-07-31T06:08:52.704Z,20.40
2022-07-31T06:11:19.323Z,20.60
2022-07-31T06:13:45.851Z,20.70
2022-07-31T06:16:14.330Z,20.90
2022-07-31T06:18:42.115Z,21.10
2022-07-31T06:21:09.129Z,21.50
2022-07-31T06:23:35.850Z,21.80
2022-07-31T06:26:02.600Z,22.10
2022-07-31T06:28:45.629Z,22.30
2022-07-31T06:31:21.484Z,23.00
2022-07-31T06:33:50.063Z,23.60
2022-07-31T06:36:18.653Z,23.80
2022-07-31T06:38:47.737Z,24.10
2022-07-31T06:41:43.576Z,24.30
2022-07-31T06:44:10.647Z,24.60
2022-07-31T06:46:37.400Z,24.80
2022-07-31T06:49:08.593Z,25.40
2022-07-31T06:51:35.908Z,25.40
2022-07-31T06:54:04.827Z,25.60
2022-07-31T06:56:33.017Z,25.90
2022-07-31T06:59:00.162Z,26.30
2022-07-31T07:01:27.730Z,26.50
2022-07-31T07:03:54.692Z,26.60
2022-07-31T07:06:21.476Z,26.70
2022-07-31T07:08:48.214Z,26.60
2022-07-31T07:11:14.912Z,26.60
2022-07-31T07:13:46.075Z,26.70
2022-07-31T07:16:15.825Z,26.40
2022-07-31T07:18:42.748Z,26.60
2022-07-31T07:21:09.422Z,26.90
2022-07-31T07:23:35.945Z,26.90
2022-07-31T07:26:03.033Z,27.20
2022-07-31T07:28:30.730Z,27.20
2022-07-31T07:30:58.142Z,27.20
2022-07-31T07:33:39.898Z,27.20
2022-07-31T07:36:24.022Z,26.90
2022-07-31T07:38:55.461Z,27.00
2022-07-31T07:41:24.626Z,27.10
2022-07-31T07:43:52.814Z,27.00
2022-07-31T07:46:24.261Z,27.00
2022-07-31T07:48:51.180Z,26.90
2022-07-31T07:51:18.839Z,26.80
2022-07-31T07:53:45.675Z,26.80
2022-07-31T07:56:12.342Z,26.80
2022-07-31T07:58:39.095Z,26.60
2022-07-31T08:01:05.721Z,26.60
2022-07-31T08:03:51.030Z,26.30
2022-07-31T08:06:20.634Z,26.70
2022-07-31T08:08:47.456Z,26.80
2022-07-31T08:11:17.092Z,26.10
2022-07-31T08:13:50.195Z,25.80
2022-07-31T08:16:21.455Z,25.90
2022-07-31T08:18:49.303Z,26.20
2022-07-31T08:21:15.813Z,26.60
2022-07-31T08:23:42.531Z,26.50
2022-07-31T08:26:09.190Z,26.40
2022-07-31T08:28:36.508Z,26.40
2022-07-31T08:31:03.639Z,26.60
2022-07-31T08:33:32.309Z,26.70
2022-07-31T08:36:00.206Z,27.00
2022-07-31T08:38:27.946Z,26.90
2022-07-31T08:40:54.509Z,27.00
2022-07-31T08:46:18.805Z,26.60
2022-07-31T08:48:46.231Z,26.70
2022-07-31T08:51:15.111Z,26.50
2022-07-31T08:53:43.985Z,26.30
2022-07-31T08:56:11.329Z,26.30
2022-07-31T08:58:39.931Z,26.40
2022-07-31T09:01:10.599Z,26.50
2022-07-31T09:03:37.258Z,26.60
2022-07-31T09:06:05.597Z,26.80
2022-07-31T09:08:37.109Z,26.80
2022-07-31T09:11:06.554Z,26.80
2022-07-31T09:13:34.137Z,26.70
2022-07-31T09:16:02.157Z,26.40
2022-07-31T09:18:29.049Z,26.40
2022-07-31T09:21:13.609Z,26.60
2022-07-31T09:23:46.846Z,26.80
2022-07-31T09:26:13.747Z,26.70
2022-07-31T09:28:48.545Z,26.60
2022-07-31T09:31:15.237Z,26.50
2022-07-31T09:33:46.326Z,26.80
2022-07-31T09:36:14.089Z,27.20
2022-07-31T09:38:42.963Z,27.40
2022-07-31T09:41:56.500Z,27.70
2022-07-31T09:44:47.623Z,27.70
2022-07-31T09:47:26.172Z,27.60
2022-07-31T09:50:01.574Z,27.20
2022-07-31T09:52:30.593Z,27.20
2022-07-31T09:55:30.361Z,27.30
2022-07-31T09:57:59.726Z,27.00
2022-07-31T10:00:27.642Z,27.00
2022-07-31T10:02:56.586Z,26.90
2022-07-31T10:05:26.702Z,27.00
2022-07-31T10:07:57.327Z,26.90
2022-07-31T10:10:24.518Z,27.00
2022-07-31T10:12:54.775Z,27.10
2022-07-31T10:15:25.252Z,27.50
2022-07-31T10:17:53.770Z,27.70
2022-07-31T10:20:24.212Z,27.90
2022-07-31T10:23:13.647Z,28.00
2022-07-31T10:25:53.631Z,27.90
2022-07-31T10:28:22.357Z,27.80
2022-07-31T10:30:50.025Z,27.70
2022-07-31T10:33:42.499Z,27.70
2022-07-31T10:36:25.352Z,27.50
2022-07-31T10:39:38.203Z,27.80
2022-07-31T10:43:28.574Z,27.60
2022-07-31T10:45:56.010Z,27.90
2022-07-31T10:48:23.189Z,27.80
2022-07-31T10:51:03.298Z,27.80
2022-07-31T10:53:50.869Z,28.00
2022-07-31T10:56:21.158Z,28.00
2022-07-31T10:58:54.123Z,28.20
2022-07-31T11:01:20.693Z,27.80
2022-07-31T11:03:52.141Z,27.80
2022-07-31T11:06:20.737Z,27.90
2022-07-31T11:08:51.575Z,28.20
2022-07-31T11:11:31.038Z,28.30
2022-07-31T11:13:59.398Z,28.10
2022-07-31T11:16:27.517Z,28.20
2022-07-31T11:19:04.092Z,28.10
2022-07-31T11:21:39.561Z,28.20
2022-07-31T11:24:22.727Z,28.40
2022-07-31T11:26:57.851Z,28.60
2022-07-31T11:30:00.379Z,28.40
2022-07-31T11:32:30.542Z,28.50
2022-07-31T11:34:57.633Z,28.30
2022-07-31T11:37:46.605Z,28.40
2022-07-31T11:40:27.435Z,28.60
2022-07-31T11:43:23.199Z,28.70
2022-07-31T11:45:54.738Z,28.90
2022-07-31T11:48:22.756Z,28.90
2022-07-31T11:50:51.132Z,28.60
2022-07-31T11:53:20.625Z,28.20
2022-07-31T11:56:00.503Z,28.00
2022-07-31T11:58:29.269Z,28.10
2022-07-31T12:01:00.767Z,28.10
2022-07-31T12:03:37.606Z,28.10
2022-07-31T12:06:09.929Z,28.40
2022-07-31T12:08:37.460Z,28.70
2022-07-31T12:11:08.691Z,28.70
2022-07-31T12:13:38.457Z,28.30
2022-07-31T12:16:10.055Z,28.20
2022-07-31T12:19:38.795Z,28.40
2022-07-31T12:22:17.084Z,29.00
2022-07-31T12:24:44.385Z,29.10
2022-07-31T12:27:15.721Z,28.90
2022-07-31T12:29:42.574Z,28.80
2022-07-31T12:32:09.142Z,28.60
2022-07-31T12:34:39.216Z,28.40
2022-07-31T12:37:14.378Z,28.20
2022-07-31T12:40:00.587Z,28.20
2022-07-31T12:42:40.697Z,28.30
2022-07-31T12:45:20.159Z,28.40
2022-07-31T12:47:51.289Z,28.60
2022-07-31T12:50:26.604Z,28.80
2022-07-31T12:52:56.676Z,29.00
2022-07-31T12:55:23.574Z,28.90
2022-07-31T12:57:51.436Z,28.80
2022-07-31T13:00:25.183Z,28.80
2022-07-31T13:02:53.900Z,28.50
2022-07-31T13:05:21.756Z,28.50
2022-07-31T13:07:49.287Z,28.60
2022-07-31T13:10:23.913Z,28.70
2022-07-31T13:12:52.100Z,28.80
2022-07-31T13:15:22.763Z,29.00
2022-07-31T13:17:50.586Z,29.20
2022-07-31T13:20:18.254Z,29.20
2022-07-31T13:22:45.035Z,29.10
2022-07-31T13:25:11.562Z,29.10
2022-07-31T13:27:38.719Z,29.30
2022-07-31T13:30:06.580Z,29.00
2022-07-31T13:32:33.231Z,28.70
2022-07-31T13:35:25.902Z,28.60
2022-07-31T13:37:55.461Z,28.70
2022-07-31T13:40:40.074Z,28.50
2022-07-31T13:43:06.698Z,27.90
2022-07-31T13:45:33.262Z,27.60
2022-07-31T13:48:00.965Z,27.50
2022-07-31T13:50:28.955Z,27.60
2022-07-31T13:52:57.940Z,27.80
2022-07-31T13:55:25.663Z,27.80
2022-07-31T13:57:52.581Z,27.90
2022-07-31T14:00:23.642Z,27.90
2022-07-31T14:02:51.939Z,27.90
2022-07-31T14:05:18.888Z,27.90
2022-07-31T14:07:51.517Z,28.00
2022-07-31T14:10:20.698Z,27.90
2022-07-31T14:12:48.081Z,27.90
2022-07-31T14:15:14.662Z,27.80
2022-07-31T14:17:41.202Z,27.90
2022-07-31T14:20:09.009Z,27.90
2022-07-31T14:22:35.588Z,27.90
2022-07-31T14:25:02.394Z,27.80
2022-07-31T14:27:29.223Z,27.80
2022-07-31T14:29:55.902Z,27.70
2022-07-31T14:32:22.716Z,27.70
2022-07-31T14:34:49.914Z,27.50
2022-07-31T14:37:19.674Z,27.50
2022-07-31T14:39:46.339Z,27.50
2022-07-31T14:42:12.985Z,27.40
2022-07-31T14:44:41.160Z,27.30
2022-07-31T14:47:09.599Z,27.40
2022-07-31T14:50:06.942Z,27.40
2022-07-31T14:52:34.682Z,27.00
2022-07-31T14:55:01.421Z,26.90
2022-07-31T14:57:30.695Z,26.70
2022-07-31T14:59:57.683Z,26.60
2022-07-31T15:02:24.564Z,26.40
2022-07-31T15:04:52.529Z,26.50
2022-07-31T15:07:38.472Z,26.60
2022-07-31T15:10:11.435Z,26.80
2022-07-31T15:12:38.256Z,26.90
2022-07-31T15:15:08.333Z,26.90
2022-07-31T15:17:35.055Z,26.90
2022-07-31T15:20:01.642Z,26.70
2022-07-31T15:22:28.959Z,26.60
2022-07-31T15:24:55.531Z,26.50
2022-07-31T15:27:23.614Z,26.50
2022-07-31T15:30:04.297Z,26.50
2022-07-31T15:32:36.517Z,26.40
2022-07-31T15:35:05.272Z,26.50
2022-07-31T15:37:40.182Z,26.60
2022-07-31T15:40:09.873Z,26.60
2022-07-31T15:42:39.542Z,26.70
2022-07-31T15:45:12.117Z,26.70
2022-07-31T15:47:39.439Z,26.60
2022-07-31T15:50:09.235Z,26.50
2022-07-31T15:52:36.127Z,26.40
2022-07-31T15:55:04.389Z,26.50
2022-07-31T15:57:33.715Z,26.50
2022-07-31T16:00:00.512Z,26.50
2022-07-31T16:02:27.342Z,26.70
2022-07-31T16:04:58.581Z,26.70
2022-07-31T16:08:31.723Z,26.70
2022-07-31T16:11:01.635Z,26.70
2022-07-31T16:13:28.202Z,26.60
2022-07-31T16:15:54.808Z,26.70
2022-07-31T16:18:21.382Z,26.70
2022-07-31T16:20:49.996Z,26.80
2022-07-31T16:23:16.704Z,26.90
2022-07-31T16:25:43.237Z,27.00
2022-07-31T16:28:09.755Z,27.00
2022-07-31T16:30:36.391Z,27.00
2022-07-31T16:33:03.022Z,27.10
2022-07-31T16:35:29.551Z,27.00
2022-07-31T16:37:56.172Z,27.00
2022-07-31T16:40:28.384Z,27.10
2022-07-31T16:43:00.973Z,27.10
2022-07-31T16:45:29.093Z,27.00
2022-07-31T16:47:55.840Z,26.90
2022-07-31T16:50:23.900Z,26.90
2022-07-31T16:52:54.549Z,26.80
2022-07-31T16:55:51.510Z,26.70
2022-07-31T16:58:28.252Z,26.70
2022-07-31T17:00:54.835Z,26.50
2022-07-31T17:03:59.899Z,26.40
2022-07-31T17:06:34.281Z,26.30
2022-07-31T17:09:16.930Z,26.30
2022-07-31T17:11:49.159Z,26.30
2022-07-31T17:14:18.519Z,26.30
2022-07-31T17:16:48.638Z,26.30
2022-07-31T17:19:42.963Z,26.30
2022-07-31T17:22:18.083Z,26.20
2022-07-31T17:24:51.464Z,26.30
2022-07-31T17:27:20.510Z,26.30
2022-07-31T17:29:47.080Z,26.20
2022-07-31T17:32:13.674Z,26.00
2022-07-31T17:34:44.264Z,26.10
2022-07-31T17:37:11.422Z,26.10
2022-07-31T17:39:38.006Z,25.80
2022-07-31T17:42:04.915Z,25.80
2022-07-31T17:44:31.853Z,25.80
2022-07-31T17:46:58.829Z,25.90
2022-07-31T17:49:27.599Z,25.90
2022-07-31T17:51:57.834Z,25.70
2022-07-31T17:54:28.217Z,25.40
2022-07-31T17:56:54.986Z,25.10
2022-07-31T17:59:22.328Z,24.90
2022-07-31T18:02:01.993Z,24.70
2022-07-31T18:04:34.214Z,24.60
2022-07-31T18:07:03.480Z,24.50
2022-07-31T18:09:30.537Z,24.30
2022-07-31T18:11:57.436Z,24.10
2022-07-31T18:14:24.456Z,23.90
2022-07-31T18:16:54.885Z,23.70
2022-07-31T18:19:23.296Z,23.60
2022-07-31T18:21:52.168Z,23.50
2022-07-31T18:24:22.981Z,23.70
2022-07-31T18:26:53.027Z,23.50
2022-07-31T18:29:20.094Z,23.40
2022-07-31T18:31:47.108Z,23.30
2022-07-31T18:34:17.322Z,23.10
2022-07-31T18:36:44.297Z,22.80
2022-07-31T18:39:13.276Z,22.60
2022-07-31T18:41:44.547Z,22.50
2022-07-31T18:44:15.140Z,22.40
2022-07-31T18:46:41.687Z,22.40
2022-07-31T18:49:08.962Z,22.40
2022-07-31T18:53:29.030Z,22.40
2022-07-31T18:55:55.573Z,22.50
2022-07-31T18:58:22.118Z,22.50
2022-07-31T19:00:54.333Z,22.60
2022-07-31T19:03:22.548Z,22.40
2022-07-31T19:05:50.160Z,22.20
2022-07-31T19:08:16.828Z,22.20
2022-07-31T19:10:43.425Z,22.10
2022-07-31T19:13:18.661Z,21.90
2022-07-31T19:15:47.550Z,21.80
2022-07-31T19:18:15.353Z,21.70
2022-07-31T19:20:58.964Z,21.50
2022-07-31T19:23:44.366Z,21.50
2022-07-31T19:26:11.724Z,21.50
2022-07-31T19:28:44.659Z,21.40
2022-07-31T19:31:13.390Z,21.20
2022-07-31T19:33:40.489Z,21.10
2022-07-31T19:36:07.715Z,21.10
2022-07-31T19:38:37.155Z,21.10
2022-07-31T19:41:04.158Z,21.10
2022-07-31T19:43:30.800Z,21.00
2022-07-31T19:46:02.604Z,21.20
2022-07-31T19:48:40.708Z,21.30
2022-07-31T19:51:07.730Z,21.40
2022-07-31T19:53:34.352Z,21.30
2022-07-31T19:56:04.577Z,21.20
2022-07-31T19:58:33.504Z,21.10
2022-07-31T20:01:05.947Z,21.00
2022-07-31T20:03:32.744Z,21.00
2022-07-31T20:05:59.571Z,21.00
2022-07-31T20:08:26.439Z,21.10
2022-07-31T20:10:58.775Z,21.00
2022-07-31T20:13:25.514Z,21.10
2022-07-31T20:15:53.125Z,21.00
2022-07-31T20:18:27.226Z,21.00
2022-07-31T20:21:02.683Z,21.00
2022-07-31T20:23:30.588Z,21.10
2022-07-31T20:25:57.332Z,21.10
2022-07-31T20:28:28.503Z,21.10
2022-07-31T20:30:55.059Z,21.10
2022-07-31T20:33:23.683Z,21.00
2022-07-31T20:35:50.695Z,20.90
2022-07-31T20:38:22.534Z,20.80
2022-07-31T20:40:53.448Z,20.90
2022-07-31T20:43:23.859Z,20.90
2022-07-31T20:45:50.991Z,20.70
2022-07-31T20:48:17.541Z,20.50
2022-07-31T20:50:48.118Z,20.30
2022-07-31T20:53:16.234Z,20.20
2022-07-31T20:55:48.459Z,20.20
2022-07-31T20:58:15.460Z,20.10
2022-07-31T21:00:42.206Z,20.20
2022-07-31T21:03:08.759Z,20.30
2022-07-31T21:05:35.307Z,20.30
2022-07-31T21:08:02.380Z,20.40
2022-07-31T21:10:29.775Z,20.50
2022-07-31T21:12:57.275Z,20.50
2022-07-31T21:15:42.957Z,20.60
2022-07-31T21:18:20.040Z,20.50
2022-07-31T21:20:52.375Z,20.20
2022-07-31T21:23:24.843Z,20.00
2022-07-31T21:25:57.552Z,19.80
2022-07-31T21:28:26.981Z,20.00
2022-07-31T21:30:57.590Z,20.00
2022-07-31T21:33:26.375Z,20.00
2022-07-31T21:35:56.801Z,20.10
2022-07-31T21:38:23.957Z,20.00
2022-07-31T21:40:51.309Z,20.10
2022-07-31T21:43:22.722Z,20.10
2022-07-31T21:45:57.225Z,20.20
2022-07-31T21:48:26.231Z,20.20
2022-07-31T21:50:54.191Z,20.00
2022-07-31T21:53:21.844Z,20.00
2022-07-31T21:55:48.473Z,20.00
2022-07-31T21:58:15.369Z,19.90
2022-07-31T22:00:42.541Z,19.90
2022-07-31T22:03:09.143Z,19.90
2022-07-31T22:05:54.203Z,19.80
2022-07-31T22:08:21.180Z,19.70
2022-07-31T22:10:50.972Z,19.90
2022-07-31T22:13:18.765Z,20.00
2022-07-31T22:15:52.671Z,20.00
2022-07-31T22:18:33.136Z,19.70
2022-07-31T22:21:05.076Z,19.80
2022-07-31T22:23:31.948Z,19.80
2022-07-31T22:25:59.215Z,19.70
2022-07-31T22:28:27.343Z,19.60
2022-07-31T22:30:55.815Z,19.40
2022-07-31T22:33:23.349Z,19.10
2022-07-31T22:35:59.354Z,19.00
2022-07-31T22:38:29.463Z,18.80
2022-07-31T22:40:57.761Z,18.60
2022-07-31T22:44:10.074Z,18.50
2022-07-31T22:46:41.643Z,18.40
2022-07-31T22:49:09.780Z,18.40
2022-07-31T22:51:38.587Z,18.40
2022-07-31T22:54:05.746Z,18.20
2022-07-31T22:56:32.304Z,18.10
2022-07-31T22:58:58.834Z,18.10
2022-07-31T23:01:25.385Z,18.00
2022-07-31T23:03:53.014Z,17.90
2022-07-31T23:06:31.036Z,17.80
2022-07-31T23:08:59.909Z,17.50
2022-07-31T23:11:26.982Z,17.50
2022-07-31T23:13:56.445Z,17.60
2022-07-31T23:16:22.992Z,17.90
2022-07-31T23:18:50.108Z,18.20
2022-07-31T23:21:18.462Z,18.30
2022-07-31T23:23:48.068Z,18.30
2022-07-31T23:26:23.256Z,18.30
2022-07-31T23:28:50.862Z,18.20
2022-07-31T23:31:19.019Z,18.20
2022-07-31T23:33:47.247Z,18.20
2022-07-31T23:36:15.261Z,18.30
2022-07-31T23:38:42.869Z,18.20
2022-07-31T23:41:09.802Z,18.20
2022-07-31T23:43:36.538Z,18.20
2022-07-31T23:46:04.748Z,18.10
2022-07-31T23:48:34.691Z,18.10
2022-07-31T23:51:02.576Z,18.10
2022-07-31T23:53:29.140Z,18.10
2022-07-31T23:55:55.714Z,18.10
2022-07-31T23:58:22.398Z,18.10
